sensor_id;sensor_type;location;lat;lon;timestamp;temperature;humidity
2106;DHT22;1059;52.548;13.408;2023-05-10T00:01:10;14.60;53.80
2106;DHT22;1059;52.548;13.408;2023-05-10T00:03:38;14.50;54.40
2106;DHT22;1059;52.548;13.408;2023-05-10T00:06:05;14.50;55.10
2106;DHT22;1059;52.548;13.408;2023-05-10T00:08:32;14.50;55.70
2106;DHT22;1059;52.548;13.408;2023-05-10T00:10:59;14.40;56.30
2106;DHT22;1059;52.548;13.408;2023-05-10T00:13:26;14.40;56.90
2106;DHT22;1059;52.548;13.408;2023-05-10T00:15:53;14.50;57.50
2106;DHT22;1059;52.548;13.408;2023-05-10T00:18:19;14.50;57.70
2106;DHT22;1059;52.548;13.408;2023-05-10T00:20:48;14.50;58.30
2106;DHT22;1059;52.548;13.408;2023-05-10T00:23:15;14.50;58.00
2106;DHT22;1059;52.548;13.408;2023-05-10T00:25:42;14.50;58.20
2106;DHT22;1059;52.548;13.408;2023-05-10T00:28:09;14.50;58.40
2106;DHT22;1059;52.548;13.408;2023-05-10T00:30:35;14.50;58.70
2106;DHT22;1059;52.548;13.408;2023-05-10T00:33:02;14.50;58.80
2106;DHT22;1059;52.548;13.408;2023-05-10T00:35:29;14.50;59.30
2106;DHT22;1059;52.548;13.408;2023-05-10T00:37:57;14.50;59.60
2106;DHT22;1059;52.548;13.408;2023-05-10T00:40:24;14.40;60.00
2106;DHT22;1059;52.548;13.408;2023-05-10T00:42:51;14.40;60.40
2106;DHT22;1059;52.548;13.408;2023-05-10T00:45:18;14.40;60.60
2106;DHT22;1059;52.548;13.408;2023-05-10T00:47:45;14.40;60.60
2106;DHT22;1059;52.548;13.408;2023-05-10T00:50:12;14.40;61.30
2106;DHT22;1059;52.548;13.408;2023-05-10T00:52:40;14.30;62.10
2106;DHT22;1059;52.548;13.408;2023-05-10T00:55:09;14.30;62.80
2106;DHT22;1059;52.548;13.408;2023-05-10T00:57:38;14.20;63.60
2106;DHT22;1059;52.548;13.408;2023-05-10T01:00:06;14.20;64.50
2106;DHT22;1059;52.548;13.408;2023-05-10T01:02:33;14.20;65.00
2106;DHT22;1059;52.548;13.408;2023-05-10T01:05:02;14.20;65.40
2106;DHT22;1059;52.548;13.408;2023-05-10T01:07:30;14.10;66.00
2106;DHT22;1059;52.548;13.408;2023-05-10T01:09:57;14.10;67.00
2106;DHT22;1059;52.548;13.408;2023-05-10T01:12:26;14.00;67.70
2106;DHT22;1059;52.548;13.408;2023-05-10T01:14:53;14.00;68.90
2106;DHT22;1059;52.548;13.408;2023-05-10T01:17:21;13.90;70.10
2106;DHT22;1059;52.548;13.408;2023-05-10T01:19:49;13.90;71.20
2106;DHT22;1059;52.548;13.408;2023-05-10T01:22:30;13.90;71.40
2106;DHT22;1059;52.548;13.408;2023-05-10T01:25:15;14.00;72.00
2106;DHT22;1059;52.548;13.408;2023-05-10T01:28:13;13.90;72.70
2106;DHT22;1059;52.548;13.408;2023-05-10T01:31:06;13.90;73.70
2106;DHT22;1059;52.548;13.408;2023-05-10T01:33:40;13.90;74.40
2106;DHT22;1059;52.548;13.408;2023-05-10T01:36:13;13.80;75.90
2106;DHT22;1059;52.548;13.408;2023-05-10T01:38:45;13.80;76.80
2106;DHT22;1059;52.548;13.408;2023-05-10T01:41:18;13.80;77.10
2106;DHT22;1059;52.548;13.408;2023-05-10T01:43:53;13.70;77.90
2106;DHT22;1059;52.548;13.408;2023-05-10T01:46:27;13.70;79.30
2106;DHT22;1059;52.548;13.408;2023-05-10T01:48:57;13.70;79.80
2106;DHT22;1059;52.548;13.408;2023-05-10T01:51:27;13.60;81.60
2106;DHT22;1059;52.548;13.408;2023-05-10T01:54:00;13.60;82.50
2106;DHT22;1059;52.548;13.408;2023-05-10T01:56:29;13.50;83.50
2106;DHT22;1059;52.548;13.408;2023-05-10T01:58:57;13.50;84.80
2106;DHT22;1059;52.548;13.408;2023-05-10T02:01:26;13.40;86.30
2106;DHT22;1059;52.548;13.408;2023-05-10T02:03:55;13.30;88.20
2106;DHT22;1059;52.548;13.408;2023-05-10T02:06:24;13.30;89.70
2106;DHT22;1059;52.548;13.408;2023-05-10T02:08:52;13.30;90.70
2106;DHT22;1059;52.548;13.408;2023-05-10T02:11:20;13.30;90.70
2106;DHT22;1059;52.548;13.408;2023-05-10T02:13:49;13.30;91.30
2106;DHT22;1059;52.548;13.408;2023-05-10T02:16:18;13.30;91.90
2106;DHT22;1059;52.548;13.408;2023-05-10T02:18:50;13.30;91.60
2106;DHT22;1059;52.548;13.408;2023-05-10T02:21:19;13.20;92.20
2106;DHT22;1059;52.548;13.408;2023-05-10T02:23:48;13.20;92.90
2106;DHT22;1059;52.548;13.408;2023-05-10T02:26:16;13.20;93.40
2106;DHT22;1059;52.548;13.408;2023-05-10T02:28:43;13.10;93.60
2106;DHT22;1059;52.548;13.408;2023-05-10T02:31:11;13.10;94.20
2106;DHT22;1059;52.548;13.408;2023-05-10T02:33:39;13.10;95.10
2106;DHT22;1059;52.548;13.408;2023-05-10T02:36:09;13.10;94.90
2106;DHT22;1059;52.548;13.408;2023-05-10T02:38:38;13.00;95.40
2106;DHT22;1059;52.548;13.408;2023-05-10T02:41:05;13.00;96.20
2106;DHT22;1059;52.548;13.408;2023-05-10T02:43:35;13.00;96.40
2106;DHT22;1059;52.548;13.408;2023-05-10T02:46:02;13.00;97.10
2106;DHT22;1059;52.548;13.408;2023-05-10T02:48:30;12.90;97.00
2106;DHT22;1059;52.548;13.408;2023-05-10T02:51:03;12.90;97.90
2106;DHT22;1059;52.548;13.408;2023-05-10T02:53:32;12.90;98.40
2106;DHT22;1059;52.548;13.408;2023-05-10T02:56:05;12.80;98.70
2106;DHT22;1059;52.548;13.408;2023-05-10T02:58:33;12.70;99.20
2106;DHT22;1059;52.548;13.408;2023-05-10T03:01:00;12.70;99.60
2106;DHT22;1059;52.548;13.408;2023-05-10T03:03:27;12.70;99.90
2106;DHT22;1059;52.548;13.408;2023-05-10T03:05:54;12.70;99.90
2106;DHT22;1059;52.548;13.408;2023-05-10T03:08:22;12.70;99.90
2106;DHT22;1059;52.548;13.408;2023-05-10T03:10:55;12.70;99.90
2106;DHT22;1059;52.548;13.408;2023-05-10T03:13:33;12.70;99.90
2106;DHT22;1059;52.548;13.408;2023-05-10T03:16:08;12.70;99.90
2106;DHT22;1059;52.548;13.408;2023-05-10T03:18:42;12.70;99.90
2106;DHT22;1059;52.548;13.408;2023-05-10T03:21:11;12.70;99.90
2106;DHT22;1059;52.548;13.408;2023-05-10T03:23:43;12.60;99.90
2106;DHT22;1059;52.548;13.408;2023-05-10T03:26:15;12.60;99.90
2106;DHT22;1059;52.548;13.408;2023-05-10T03:28:45;12.60;99.90
2106;DHT22;1059;52.548;13.408;2023-05-10T03:31:14;12.60;99.90
2106;DHT22;1059;52.548;13.408;2023-05-10T03:33:46;12.50;99.90
2106;DHT22;1059;52.548;13.408;2023-05-10T03:36:13;12.60;99.90
2106;DHT22;1059;52.548;13.408;2023-05-10T03:38:40;12.50;99.90
2106;DHT22;1059;52.548;13.408;2023-05-10T03:41:07;12.50;99.90
2106;DHT22;1059;52.548;13.408;2023-05-10T03:43:34;12.60;99.90
2106;DHT22;1059;52.548;13.408;2023-05-10T03:46:03;12.50;99.90
2106;DHT22;1059;52.548;13.408;2023-05-10T03:48:32;12.50;99.90
2106;DHT22;1059;52.548;13.408;2023-05-10T03:50:59;12.50;99.90
2106;DHT22;1059;52.548;13.408;2023-05-10T03:53:26;12.50;99.90
2106;DHT22;1059;52.548;13.408;2023-05-10T03:55:53;12.50;99.90
2106;DHT22;1059;52.548;13.408;2023-05-10T03:58:20;12.50;99.90
2106;DHT22;1059;52.548;13.408;2023-05-10T04:00:47;12.50;99.90
2106;DHT22;1059;52.548;13.408;2023-05-10T04:03:15;12.40;99.90
2106;DHT22;1059;52.548;13.408;2023-05-10T04:05:42;12.50;99.90
2106;DHT22;1059;52.548;13.408;2023-05-10T04:08:09;12.50;99.90
2106;DHT22;1059;52.548;13.408;2023-05-10T04:10:36;12.40;99.90
2106;DHT22;1059;52.548;13.408;2023-05-10T04:13:03;12.40;99.90
2106;DHT22;1059;52.548;13.408;2023-05-10T04:15:30;12.40;99.90
2106;DHT22;1059;52.548;13.408;2023-05-10T04:17:56;12.50;99.90
2106;DHT22;1059;52.548;13.408;2023-05-10T04:20:25;12.50;99.90
2106;DHT22;1059;52.548;13.408;2023-05-10T04:22:51;12.50;99.90
2106;DHT22;1059;52.548;13.408;2023-05-10T04:25:19;12.40;99.90
2106;DHT22;1059;52.548;13.408;2023-05-10T04:27:46;12.50;99.90
2106;DHT22;1059;52.548;13.408;2023-05-10T04:30:13;12.50;99.90
2106;DHT22;1059;52.548;13.408;2023-05-10T04:32:39;12.50;99.90
2106;DHT22;1059;52.548;13.408;2023-05-10T04:35:07;12.50;99.90
2106;DHT22;1059;52.548;13.408;2023-05-10T04:37:36;12.50;99.90
2106;DHT22;1059;52.548;13.408;2023-05-10T04:40:04;12.50;99.90
2106;DHT22;1059;52.548;13.408;2023-05-10T04:42:31;12.60;99.90
2106;DHT22;1059;52.548;13.408;2023-05-10T04:44:58;12.50;99.90
2106;DHT22;1059;52.548;13.408;2023-05-10T04:47:25;12.50;99.90
2106;DHT22;1059;52.548;13.408;2023-05-10T04:49:52;12.40;99.90
2106;DHT22;1059;52.548;13.408;2023-05-10T04:52:19;12.40;99.90
2106;DHT22;1059;52.548;13.408;2023-05-10T04:54:47;12.40;99.90
2106;DHT22;1059;52.548;13.408;2023-05-10T04:57:14;12.50;99.90
2106;DHT22;1059;52.548;13.408;2023-05-10T04:59:41;12.50;99.90
2106;DHT22;1059;52.548;13.408;2023-05-10T05:02:08;12.50;99.90
2106;DHT22;1059;52.548;13.408;2023-05-10T05:04:35;12.50;99.90
2106;DHT22;1059;52.548;13.408;2023-05-10T05:07:01;12.50;99.90
2106;DHT22;1059;52.548;13.408;2023-05-10T05:09:28;12.50;99.90
2106;DHT22;1059;52.548;13.408;2023-05-10T05:11:58;12.60;99.90
2106;DHT22;1059;52.548;13.408;2023-05-10T05:14:26;12.70;99.90
2106;DHT22;1059;52.548;13.408;2023-05-10T05:16:52;12.70;99.90
2106;DHT22;1059;52.548;13.408;2023-05-10T05:19:19;12.80;99.90
2106;DHT22;1059;52.548;13.408;2023-05-10T05:21:46;12.80;99.90
2106;DHT22;1059;52.548;13.408;2023-05-10T05:24:13;12.90;99.90
2106;DHT22;1059;52.548;13.408;2023-05-10T05:26:40;12.90;99.90
2106;DHT22;1059;52.548;13.408;2023-05-10T05:29:08;13.00;99.90
2106;DHT22;1059;52.548;13.408;2023-05-10T05:31:35;13.00;99.90
2106;DHT22;1059;52.548;13.408;2023-05-10T05:34:02;13.00;99.90
2106;DHT22;1059;52.548;13.408;2023-05-10T05:36:29;13.00;99.90
2106;DHT22;1059;52.548;13.408;2023-05-10T05:38:57;13.10;99.90
2106;DHT22;1059;52.548;13.408;2023-05-10T05:41:23;13.10;99.90
2106;DHT22;1059;52.548;13.408;2023-05-10T05:43:51;13.10;99.90
2106;DHT22;1059;52.548;13.408;2023-05-10T05:46:19;13.20;99.90
2106;DHT22;1059;52.548;13.408;2023-05-10T05:48:46;13.30;99.90
2106;DHT22;1059;52.548;13.408;2023-05-10T05:51:13;13.30;99.90
2106;DHT22;1059;52.548;13.408;2023-05-10T05:53:40;13.40;99.90
2106;DHT22;1059;52.548;13.408;2023-05-10T05:56:06;13.50;99.90
2106;DHT22;1059;52.548;13.408;2023-05-10T05:58:34;13.60;99.90
2106;DHT22;1059;52.548;13.408;2023-05-10T06:01:01;13.60;99.90
2106;DHT22;1059;52.548;13.408;2023-05-10T06:03:30;13.70;99.90
2106;DHT22;1059;52.548;13.408;2023-05-10T06:05:57;13.60;99.90
2106;DHT22;1059;52.548;13.408;2023-05-10T06:08:23;13.60;99.90
2106;DHT22;1059;52.548;13.408;2023-05-10T06:10:51;13.70;99.90
2106;DHT22;1059;52.548;13.408;2023-05-10T06:13:18;13.70;99.90
2106;DHT22;1059;52.548;13.408;2023-05-10T06:15:44;13.70;99.90
2106;DHT22;1059;52.548;13.408;2023-05-10T06:18:12;13.80;99.90
2106;DHT22;1059;52.548;13.408;2023-05-10T06:20:41;13.80;99.90
2106;DHT22;1059;52.548;13.408;2023-05-10T06:23:07;13.80;99.90
2106;DHT22;1059;52.548;13.408;2023-05-10T06:25:34;13.90;99.90
2106;DHT22;1059;52.548;13.408;2023-05-10T06:28:01;14.00;99.90
2106;DHT22;1059;52.548;13.408;2023-05-10T06:30:28;14.20;99.90
2106;DHT22;1059;52.548;13.408;2023-05-10T06:32:55;14.20;99.90
2106;DHT22;1059;52.548;13.408;2023-05-10T06:35:22;14.20;99.90
2106;DHT22;1059;52.548;13.408;2023-05-10T06:37:50;14.30;99.90
2106;DHT22;1059;52.548;13.408;2023-05-10T06:40:18;14.40;99.90
2106;DHT22;1059;52.548;13.408;2023-05-10T06:42:45;14.40;99.90
2106;DHT22;1059;52.548;13.408;2023-05-10T06:45:12;14.50;99.90
2106;DHT22;1059;52.548;13.408;2023-05-10T06:47:40;14.50;99.90
2106;DHT22;1059;52.548;13.408;2023-05-10T06:50:07;14.60;99.90
2106;DHT22;1059;52.548;13.408;2023-05-10T06:52:34;14.70;99.90
2106;DHT22;1059;52.548;13.408;2023-05-10T06:55:04;14.70;99.90
2106;DHT22;1059;52.548;13.408;2023-05-10T06:57:31;14.80;99.90
2106;DHT22;1059;52.548;13.408;2023-05-10T06:59:58;14.90;99.90
2106;DHT22;1059;52.548;13.408;2023-05-10T07:02:25;14.90;99.90
2106;DHT22;1059;52.548;13.408;2023-05-10T07:04:52;14.90;99.90
2106;DHT22;1059;52.548;13.408;2023-05-10T07:07:19;15.00;99.90
2106;DHT22;1059;52.548;13.408;2023-05-10T07:09:46;15.00;99.90
2106;DHT22;1059;52.548;13.408;2023-05-10T07:12:15;15.10;99.90
2106;DHT22;1059;52.548;13.408;2023-05-10T07:14:42;15.10;99.90
2106;DHT22;1059;52.548;13.408;2023-05-10T07:17:09;15.20;99.90
2106;DHT22;1059;52.548;13.408;2023-05-10T07:19:36;15.20;99.90
2106;DHT22;1059;52.548;13.408;2023-05-10T07:22:03;15.30;99.90
2106;DHT22;1059;52.548;13.408;2023-05-10T07:24:30;15.40;99.90
2106;DHT22;1059;52.548;13.408;2023-05-10T07:26:57;15.50;99.90
2106;DHT22;1059;52.548;13.408;2023-05-10T07:29:25;15.50;99.90
2106;DHT22;1059;52.548;13.408;2023-05-10T07:31:52;15.50;99.50
2106;DHT22;1059;52.548;13.408;2023-05-10T07:34:19;15.60;99.50
2106;DHT22;1059;52.548;13.408;2023-05-10T07:36:45;15.60;99.70
2106;DHT22;1059;52.548;13.408;2023-05-10T07:39:12;15.70;99.40
2106;DHT22;1059;52.548;13.408;2023-05-10T07:41:39;15.70;99.20
2106;DHT22;1059;52.548;13.408;2023-05-10T07:44:06;15.80;99.30
2106;DHT22;1059;52.548;13.408;2023-05-10T07:46:34;15.80;99.60
2106;DHT22;1059;52.548;13.408;2023-05-10T07:49:01;15.90;99.30
2106;DHT22;1059;52.548;13.408;2023-05-10T07:51:28;16.10;99.40
2106;DHT22;1059;52.548;13.408;2023-05-10T07:53:55;16.20;98.50
2106;DHT22;1059;52.548;13.408;2023-05-10T07:56:24;16.30;98.80
2106;DHT22;1059;52.548;13.408;2023-05-10T07:58:52;16.40;98.10
2106;DHT22;1059;52.548;13.408;2023-05-10T08:01:20;16.50;97.40
2106;DHT22;1059;52.548;13.408;2023-05-10T08:03:48;16.60;97.50
2106;DHT22;1059;52.548;13.408;2023-05-10T08:06:17;16.70;96.60
2106;DHT22;1059;52.548;13.408;2023-05-10T08:08:44;16.70;96.00
2106;DHT22;1059;52.548;13.408;2023-05-10T08:11:16;16.80;96.40
2106;DHT22;1059;52.548;13.408;2023-05-10T08:13:43;16.90;96.70
2106;DHT22;1059;52.548;13.408;2023-05-10T08:16:10;17.00;95.70
2106;DHT22;1059;52.548;13.408;2023-05-10T08:18:37;17.00;94.80
2106;DHT22;1059;52.548;13.408;2023-05-10T08:21:05;17.10;94.90
2106;DHT22;1059;52.548;13.408;2023-05-10T08:23:32;17.10;95.10
2106;DHT22;1059;52.548;13.408;2023-05-10T08:25:59;17.20;94.00
2106;DHT22;1059;52.548;13.408;2023-05-10T08:28:26;17.20;94.80
2106;DHT22;1059;52.548;13.408;2023-05-10T08:30:53;17.30;94.40
2106;DHT22;1059;52.548;13.408;2023-05-10T08:33:20;17.40;93.90
2106;DHT22;1059;52.548;13.408;2023-05-10T08:35:47;17.50;93.90
2106;DHT22;1059;52.548;13.408;2023-05-10T08:38:15;17.50;92.30
2106;DHT22;1059;52.548;13.408;2023-05-10T08:40:43;17.60;92.00
2106;DHT22;1059;52.548;13.408;2023-05-10T08:43:12;17.70;92.10
2106;DHT22;1059;52.548;13.408;2023-05-10T08:45:41;17.80;91.80
2106;DHT22;1059;52.548;13.408;2023-05-10T08:48:09;17.80;91.20
2106;DHT22;1059;52.548;13.408;2023-05-10T08:50:37;17.90;90.50
2106;DHT22;1059;52.548;13.408;2023-05-10T08:53:06;17.90;90.40
2106;DHT22;1059;52.548;13.408;2023-05-10T08:55:34;17.80;88.10
2106;DHT22;1059;52.548;13.408;2023-05-10T08:58:04;17.90;90.50
2106;DHT22;1059;52.548;13.408;2023-05-10T09:00:31;18.00;90.00
2106;DHT22;1059;52.548;13.408;2023-05-10T09:02:58;18.00;87.60
2106;DHT22;1059;52.548;13.408;2023-05-10T09:05:26;18.10;86.50
2106;DHT22;1059;52.548;13.408;2023-05-10T09:07:53;18.20;85.50
2106;DHT22;1059;52.548;13.408;2023-05-10T09:10:20;18.20;82.90
2106;DHT22;1059;52.548;13.408;2023-05-10T09:12:49;18.30;81.80
2106;DHT22;1059;52.548;13.408;2023-05-10T09:15:16;18.40;82.90
2106;DHT22;1059;52.548;13.408;2023-05-10T09:17:44;18.40;83.20
2106;DHT22;1059;52.548;13.408;2023-05-10T09:20:12;18.40;80.00
2106;DHT22;1059;52.548;13.408;2023-05-10T09:22:39;18.40;81.20
2106;DHT22;1059;52.548;13.408;2023-05-10T09:25:07;18.50;80.80
2106;DHT22;1059;52.548;13.408;2023-05-10T09:27:35;18.60;81.00
2106;DHT22;1059;52.548;13.408;2023-05-10T09:30:05;18.70;81.20
2106;DHT22;1059;52.548;13.408;2023-05-10T09:32:39;18.70;78.50
2106;DHT22;1059;52.548;13.408;2023-05-10T09:35:07;18.80;78.30
2106;DHT22;1059;52.548;13.408;2023-05-10T09:37:34;18.90;77.40
2106;DHT22;1059;52.548;13.408;2023-05-10T09:40:05;18.90;76.40
2106;DHT22;1059;52.548;13.408;2023-05-10T09:42:33;19.00;75.50
2106;DHT22;1059;52.548;13.408;2023-05-10T09:45:06;19.00;75.80
2106;DHT22;1059;52.548;13.408;2023-05-10T09:47:33;19.00;75.10
2106;DHT22;1059;52.548;13.408;2023-05-10T09:50:00;19.10;75.20
2106;DHT22;1059;52.548;13.408;2023-05-10T09:52:30;19.20;73.80
2106;DHT22;1059;52.548;13.408;2023-05-10T09:54:57;19.30;72.10
2106;DHT22;1059;52.548;13.408;2023-05-10T09:57:25;19.30;70.90
2106;DHT22;1059;52.548;13.408;2023-05-10T09:59:52;19.30;72.00
2106;DHT22;1059;52.548;13.408;2023-05-10T10:02:28;19.30;72.30
2106;DHT22;1059;52.548;13.408;2023-05-10T10:04:55;19.40;72.60
2106;DHT22;1059;52.548;13.408;2023-05-10T10:07:24;19.40;72.30
2106;DHT22;1059;52.548;13.408;2023-05-10T10:09:52;19.50;71.60
2106;DHT22;1059;52.548;13.408;2023-05-10T10:12:19;19.60;71.20
2106;DHT22;1059;52.548;13.408;2023-05-10T10:14:46;19.70;69.80
2106;DHT22;1059;52.548;13.408;2023-05-10T10:17:15;19.80;69.00
2106;DHT22;1059;52.548;13.408;2023-05-10T10:19:43;19.90;67.00
2106;DHT22;1059;52.548;13.408;2023-05-10T10:22:12;20.00;66.60
2106;DHT22;1059;52.548;13.408;2023-05-10T10:24:38;20.00;66.60
2106;DHT22;1059;52.548;13.408;2023-05-10T10:27:17;20.10;66.40
2106;DHT22;1059;52.548;13.408;2023-05-10T10:29:52;20.10;66.00
2106;DHT22;1059;52.548;13.408;2023-05-10T10:32:32;20.20;66.30
2106;DHT22;1059;52.548;13.408;2023-05-10T10:35:03;20.30;66.60
2106;DHT22;1059;52.548;13.408;2023-05-10T10:37:44;20.40;66.10
2106;DHT22;1059;52.548;13.408;2023-05-10T10:40:24;20.50;63.70
2106;DHT22;1059;52.548;13.408;2023-05-10T10:42:52;20.50;62.20
2106;DHT22;1059;52.548;13.408;2023-05-10T10:45:20;20.50;62.20
2106;DHT22;1059;52.548;13.408;2023-05-10T10:47:47;20.60;62.00
2106;DHT22;1059;52.548;13.408;2023-05-10T10:50:16;20.60;60.40
2106;DHT22;1059;52.548;13.408;2023-05-10T10:52:44;20.70;60.80
2106;DHT22;1059;52.548;13.408;2023-05-10T10:55:12;20.80;61.10
2106;DHT22;1059;52.548;13.408;2023-05-10T10:57:44;20.80;59.30
2106;DHT22;1059;52.548;13.408;2023-05-10T11:00:26;20.80;60.20
2106;DHT22;1059;52.548;13.408;2023-05-10T11:02:55;21.00;59.90
2106;DHT22;1059;52.548;13.408;2023-05-10T11:05:42;21.10;58.80
2106;DHT22;1059;52.548;13.408;2023-05-10T11:08:18;21.20;58.70
2106;DHT22;1059;52.548;13.408;2023-05-10T11:10:53;21.30;57.50
2106;DHT22;1059;52.548;13.408;2023-05-10T11:13:31;21.40;57.50
2106;DHT22;1059;52.548;13.408;2023-05-10T11:15:58;21.80;58.00
2106;DHT22;1059;52.548;13.408;2023-05-10T11:18:27;22.60;57.30
2106;DHT22;1059;52.548;13.408;2023-05-10T11:20:58;23.90;55.00
2106;DHT22;1059;52.548;13.408;2023-05-10T11:23:30;25.40;50.70
2106;DHT22;1059;52.548;13.408;2023-05-10T11:25:59;26.90;46.50
2106;DHT22;1059;52.548;13.408;2023-05-10T11:28:26;28.20;41.90
2106;DHT22;1059;52.548;13.408;2023-05-10T11:30:54;29.50;39.30
2106;DHT22;1059;52.548;13.408;2023-05-10T11:33:21;30.60;32.20
2106;DHT22;1059;52.548;13.408;2023-05-10T11:35:48;31.10;29.20
2106;DHT22;1059;52.548;13.408;2023-05-10T11:38:16;31.40;27.70
2106;DHT22;1059;52.548;13.408;2023-05-10T11:40:43;30.80;26.20
2106;DHT22;1059;52.548;13.408;2023-05-10T11:43:10;31.10;26.90
2106;DHT22;1059;52.548;13.408;2023-05-10T11:45:37;31.70;26.70
2106;DHT22;1059;52.548;13.408;2023-05-10T11:48:05;32.40;24.70
2106;DHT22;1059;52.548;13.408;2023-05-10T11:50:32;32.70;24.30
2106;DHT22;1059;52.548;13.408;2023-05-10T11:52:59;33.20;24.00
2106;DHT22;1059;52.548;13.408;2023-05-10T11:55:27;33.90;22.80
2106;DHT22;1059;52.548;13.408;2023-05-10T11:57:59;34.50;21.40
2106;DHT22;1059;52.548;13.408;2023-05-10T12:00:26;35.10;21.10
2106;DHT22;1059;52.548;13.408;2023-05-10T12:02:53;35.60;20.00
2106;DHT22;1059;52.548;13.408;2023-05-10T12:05:20;35.50;17.80
2106;DHT22;1059;52.548;13.408;2023-05-10T12:07:47;34.20;17.20
2106;DHT22;1059;52.548;13.408;2023-05-10T12:10:14;34.00;18.40
2106;DHT22;1059;52.548;13.408;2023-05-10T12:12:45;33.90;18.30
2106;DHT22;1059;52.548;13.408;2023-05-10T12:15:18;33.90;18.70
2106;DHT22;1059;52.548;13.408;2023-05-10T12:17:45;34.40;18.40
2106;DHT22;1059;52.548;13.408;2023-05-10T12:20:13;34.80;18.10
2106;DHT22;1059;52.548;13.408;2023-05-10T12:22:41;35.10;17.20
2106;DHT22;1059;52.548;13.408;2023-05-10T12:25:10;35.50;17.60
2106;DHT22;1059;52.548;13.408;2023-05-10T12:27:37;35.70;16.10
2106;DHT22;1059;52.548;13.408;2023-05-10T12:30:06;35.70;15.60
2106;DHT22;1059;52.548;13.408;2023-05-10T12:32:40;35.10;15.60
2106;DHT22;1059;52.548;13.408;2023-05-10T12:35:08;35.20;16.00
2106;DHT22;1059;52.548;13.408;2023-05-10T12:37:35;35.40;15.30
2106;DHT22;1059;52.548;13.408;2023-05-10T12:40:06;35.30;15.00
2106;DHT22;1059;52.548;13.408;2023-05-10T12:42:34;35.40;14.90
2106;DHT22;1059;52.548;13.408;2023-05-10T12:45:02;34.80;13.60
2106;DHT22;1059;52.548;13.408;2023-05-10T12:47:30;34.20;14.10
2106;DHT22;1059;52.548;13.408;2023-05-10T12:49:58;33.60;14.80
2106;DHT22;1059;52.548;13.408;2023-05-10T12:52:25;33.20;15.30
2106;DHT22;1059;52.548;13.408;2023-05-10T12:54:52;33.00;16.10
2106;DHT22;1059;52.548;13.408;2023-05-10T12:57:20;33.60;16.80
2106;DHT22;1059;52.548;13.408;2023-05-10T12:59:47;34.20;15.60
2106;DHT22;1059;52.548;13.408;2023-05-10T13:02:15;34.50;15.80
2106;DHT22;1059;52.548;13.408;2023-05-10T13:04:44;35.00;14.80
2106;DHT22;1059;52.548;13.408;2023-05-10T13:07:12;34.30;14.40
2106;DHT22;1059;52.548;13.408;2023-05-10T13:09:39;34.10;14.70
2106;DHT22;1059;52.548;13.408;2023-05-10T13:12:06;33.40;14.40
2106;DHT22;1059;52.548;13.408;2023-05-10T13:14:33;33.20;14.70
2106;DHT22;1059;52.548;13.408;2023-05-10T13:17:00;32.80;15.30
2106;DHT22;1059;52.548;13.408;2023-05-10T13:19:26;32.70;15.70
2106;DHT22;1059;52.548;13.408;2023-05-10T13:21:55;33.20;15.70
2106;DHT22;1059;52.548;13.408;2023-05-10T13:24:22;33.30;15.80
2106;DHT22;1059;52.548;13.408;2023-05-10T13:26:48;33.60;15.40
2106;DHT22;1059;52.548;13.408;2023-05-10T13:29:15;34.20;16.10
2106;DHT22;1059;52.548;13.408;2023-05-10T13:31:43;34.60;15.30
2106;DHT22;1059;52.548;13.408;2023-05-10T13:34:10;34.60;13.50
2106;DHT22;1059;52.548;13.408;2023-05-10T13:36:37;34.60;13.80
2106;DHT22;1059;52.548;13.408;2023-05-10T13:39:06;35.10;13.80
2106;DHT22;1059;52.548;13.408;2023-05-10T13:41:33;35.60;13.10
2106;DHT22;1059;52.548;13.408;2023-05-10T13:43:59;35.90;13.10
2106;DHT22;1059;52.548;13.408;2023-05-10T13:46:26;35.40;13.50
2106;DHT22;1059;52.548;13.408;2023-05-10T13:48:53;35.10;13.70
2106;DHT22;1059;52.548;13.408;2023-05-10T13:51:20;35.10;13.50
2106;DHT22;1059;52.548;13.408;2023-05-10T13:53:47;35.40;13.30
2106;DHT22;1059;52.548;13.408;2023-05-10T13:56:15;35.40;13.20
2106;DHT22;1059;52.548;13.408;2023-05-10T13:58:42;35.70;12.70
2106;DHT22;1059;52.548;13.408;2023-05-10T14:01:09;35.60;12.40
2106;DHT22;1059;52.548;13.408;2023-05-10T14:03:37;35.10;12.50
2106;DHT22;1059;52.548;13.408;2023-05-10T14:06:04;34.70;12.90
2106;DHT22;1059;52.548;13.408;2023-05-10T14:08:32;33.80;12.40
2106;DHT22;1059;52.548;13.408;2023-05-10T14:10:59;32.60;12.80
2106;DHT22;1059;52.548;13.408;2023-05-10T14:13:27;32.00;14.10
2106;DHT22;1059;52.548;13.408;2023-05-10T14:15:54;32.00;14.60
2106;DHT22;1059;52.548;13.408;2023-05-10T14:18:21;31.50;14.40
2106;DHT22;1059;52.548;13.408;2023-05-10T14:20:49;31.40;14.90
2106;DHT22;1059;52.548;13.408;2023-05-10T14:23:16;31.60;14.90
2106;DHT22;1059;52.548;13.408;2023-05-10T14:25:42;31.70;14.50
2106;DHT22;1059;52.548;13.408;2023-05-10T14:28:09;32.10;14.60
2106;DHT22;1059;52.548;13.408;2023-05-10T14:30:38;32.70;14.80
2106;DHT22;1059;52.548;13.408;2023-05-10T14:33:05;32.90;14.00
2106;DHT22;1059;52.548;13.408;2023-05-10T14:35:33;32.80;14.00
2106;DHT22;1059;52.548;13.408;2023-05-10T14:38:00;32.60;13.90
2106;DHT22;1059;52.548;13.408;2023-05-10T14:40:27;32.90;14.30
2106;DHT22;1059;52.548;13.408;2023-05-10T14:42:54;33.50;14.00
2106;DHT22;1059;52.548;13.408;2023-05-10T14:45:22;33.70;13.60
2106;DHT22;1059;52.548;13.408;2023-05-10T14:47:50;34.20;13.40
2106;DHT22;1059;52.548;13.408;2023-05-10T14:50:17;34.40;12.70
2106;DHT22;1059;52.548;13.408;2023-05-10T14:52:44;34.50;12.20
2106;DHT22;1059;52.548;13.408;2023-05-10T14:55:11;34.10;11.60
2106;DHT22;1059;52.548;13.408;2023-05-10T14:57:38;33.20;12.10
2106;DHT22;1059;52.548;13.408;2023-05-10T15:00:06;32.80;13.20
2106;DHT22;1059;52.548;13.408;2023-05-10T15:02:33;32.80;13.10
2106;DHT22;1059;52.548;13.408;2023-05-10T15:05:01;32.90;13.60
2106;DHT22;1059;52.548;13.408;2023-05-10T15:07:28;32.80;13.30
2106;DHT22;1059;52.548;13.408;2023-05-10T15:09:57;32.30;13.20
2106;DHT22;1059;52.548;13.408;2023-05-10T15:12:23;31.70;12.90
2106;DHT22;1059;52.548;13.408;2023-05-10T15:14:50;30.90;13.20
2106;DHT22;1059;52.548;13.408;2023-05-10T15:17:17;30.30;14.50
2106;DHT22;1059;52.548;13.408;2023-05-10T15:19:44;30.00;15.20
2106;DHT22;1059;52.548;13.408;2023-05-10T15:22:12;30.00;15.30
2106;DHT22;1059;52.548;13.408;2023-05-10T15:24:39;29.20;15.60
2106;DHT22;1059;52.548;13.408;2023-05-10T15:27:06;28.30;16.00
2106;DHT22;1059;52.548;13.408;2023-05-10T15:29:33;27.70;16.90
2106;DHT22;1059;52.548;13.408;2023-05-10T15:32:01;27.40;17.70
2106;DHT22;1059;52.548;13.408;2023-05-10T15:34:28;27.00;17.80
2106;DHT22;1059;52.548;13.408;2023-05-10T15:36:55;26.70;18.00
2106;DHT22;1059;52.548;13.408;2023-05-10T15:39:23;26.40;18.40
2106;DHT22;1059;52.548;13.408;2023-05-10T15:41:50;26.00;18.80
2106;DHT22;1059;52.548;13.408;2023-05-10T15:44:17;25.80;19.20
2106;DHT22;1059;52.548;13.408;2023-05-10T15:46:44;25.40;19.50
2106;DHT22;1059;52.548;13.408;2023-05-10T15:49:11;25.30;20.00
2106;DHT22;1059;52.548;13.408;2023-05-10T15:51:38;25.20;19.60